Time;durP1;ratioP1;P1;durP2;ratioP2;P2;SDS_P1;SDS_P2;PMS_P1;PMS_P2;Temp;Humidity;BMP_temperature;BMP_pressure;BME280_temperature;BME280_humidity;BME280_pressure;Samples;Min_cycle;Max_cycle;Signal;HPM_P1;HPM_P2
2022/04/05 00:00:50;;;;;;;13.07;7.72;;;;;;;0.44;79.27;92314.28;4972041;28;20200;-88
2022/04/05 00:03:31;;;;;;;15.00;8.57;;;;;;;0.27;78.79;92277.38;5035402;28;20056;-87
2022/04/05 00:09:04;;;;;;;14.82;9.13;;;;;;;0.26;79.26;92276.59;5023408;28;20037;-88
2022/04/05 00:12:23;;;;;;;;;;;;;;;;;;;;;
2022/04/05 00:15:13;;;;;;;19.60;8.65;;;;;;;0.21;78.90;92268.78;5036583;28;20036;-88
2022/04/05 00:17:48;;;;;;;17.10;9.07;;;;;;;0.36;79.02;92288.88;5022613;28;20116;-87
2022/04/05 00:20:36;;;;;;;17.45;8.80;;;;;;;0.19;79.12;92268.22;5038626;28;20037;-88
2022/04/05 00:23:14;;;;;;;19.73;9.75;;;;;;;0.37;79.29;92288.66;5038500;28;20429;-88
2022/04/05 00:26:15;;;;;;;;;;;;;;;;;;;;;
2022/04/05 00:28:52;;;;;;;17.58;9.55;;;;;;;0.20;79.31;92267.19;5023469;28;20068;-87
2022/04/05 00:31:40;;;;;;;16.98;8.68;;;;;;;0.44;78.80;92291.09;5016295;28;20075;-87
2022/04/05 00:34:27;;;;;;;;;;;;;;;;;;;;;
2022/04/05 00:37:02;;;;;;;16.90;9.18;;;;;;;0.31;79.00;92265.59;5038167;28;20061;-88
2022/04/05 00:40:09;;;;;;;17.65;9.88;;;;;;;0.15;78.82;92243.94;5055078;28;20056;-87
2022/04/05 00:42:38;;;;;;;19.70;9.55;;;;;;;0.44;79.15;92288.53;5022325;28;20052;-88
2022/04/05 00:45:27;;;;;;;21.65;9.90;;;;;;;0.48;79.20;92287.06;5055239;28;20484;-88
2022/04/05 00:48:08;;;;;;;19.70;9.98;;;;;;;0.22;79.26;92254.09;5022383;28;20123;-88
2022/04/05 00:53:59;;;;;;;16.98;9.93;;;;;;;0.26;79.62;92262.94;5038106;28;20053;-88
2022/04/05 00:56:45;;;;;;;18.95;10.05;;;;;;;0.10;79.73;92234.31;5022116;28;20478;-88
2022/04/05 00:59:42;;;;;;;20.95;10.07;;;;;;;0.62;79.51;92310.75;5039716;28;20462;-88
2022/04/05 01:02:28;;;;;;;20.27;10.52;;;;;;;0.16;79.68;92245.50;5055818;28;20047;-88
2022/04/05 01:05:04;;;;;;;18.45;9.80;;;;;;;0.09;79.70;92229.41;5003515;28;20057;-87
2022/04/05 01:07:50;;;;;;;17.52;10.20;;;;;;;0.12;79.76;92237.44;4993596;28;20104;-88
2022/04/05 01:10:30;;;;;;;16.90;9.27;;;;;;;0.07;79.32;92224.50;5020702;28;20406;-87
2022/04/05 01:13:37;;;;;;;;;;;;;;;;;;;;;
2022/04/05 01:16:19;;;;;;;18.95;9.63;;;;;;;0.28;79.47;92250.63;5035648;28;20394;-88
2022/04/05 01:19:32;;;;;;;17.98;10.05;;;;;;;0.12;79.49;92223.81;5017817;28;20479;-88
2022/04/05 01:22:06;;;;;;;15.38;8.88;;;;;;;0.09;79.58;92222.47;5011502;28;20045;-88
2022/04/05 01:24:43;;;;;;;16.80;9.32;;;;;;;0.31;79.52;92261.22;5022010;28;20429;-88
2022/04/05 01:27:35;;;;;;;17.38;9.60;;;;;;;0.00;79.61;92218.69;5037486;28;20045;-88
2022/04/05 01:30:27;;;;;;;17.35;8.98;;;;;;;0.40;79.86;92271.97;5021103;28;20125;-90
2022/04/05 01:33:05;;;;;;;17.02;9.43;;;;;;;0.14;79.89;92240.59;5037113;28;20072;-88
2022/04/05 01:35:41;;;;;;;22.23;10.10;;;;;;;0.23;80.10;92242.81;5037693;28;20043;-88
2022/04/05 01:38:18;;;;;;;17.45;9.48;;;;;;;-0.05;80.66;92211.63;5020981;28;20482;-87
2022/04/05 01:43:40;;;;;;;16.60;9.73;;;;;;;0.18;80.34;92235.75;5023547;28;20044;-87
2022/04/05 01:46:30;;;;;;;16.85;10.07;;;;;;;0.24;80.38;92245.13;5024904;28;20045;-88
2022/04/05 01:49:20;;;;;;;18.25;10.13;;;;;;;-0.09;80.50;92196.88;5021349;28;20029;-88
2022/04/05 01:52:19;;;;;;;21.10;10.27;;;;;;;0.28;80.67;92261.69;5038556;28;20054;-88
2022/04/05 01:55:11;;;;;;;;;;;;;;;;;;;;;
2022/04/05 01:57:58;;;;;;;19.85;9.95;;;;;;;-0.18;80.85;92190.53;5036620;28;20033;-88
2022/04/05 02:01:00;;;;;;;;;;;;;;;;;;;;;
2022/04/05 02:03:33;;;;;;;18.08;9.70;;;;;;;-0.03;80.52;92214.00;5036414;28;20057;-87
2022/04/05 02:06:31;;;;;;;21.38;9.98;;;;;;;-0.05;80.47;92213.44;5074754;28;20481;-88
2022/04/05 02:09:16;;;;;;;17.10;9.77;;;;;;;0.07;80.12;92229.63;5037869;28;20065;-88
2022/04/05 02:11:55;;;;;;;21.52;10.45;;;;;;;-0.08;80.37;92201.03;5041046;28;20080;-87
2022/04/05 02:17:55;;;;;;;17.52;9.88;;;;;;;-0.17;80.74;92181.81;5073270;28;20053;-88
2022/04/05 02:20:55;;;;;;;;;;;;;;;;;;;;;
2022/04/05 02:23:53;;;;;;;19.63;10.07;;;;;;;-0.23;81.16;92168.81;5042716;28;20040;-88
2022/04/05 02:26:32;;;;;;;17.48;9.73;;;;;;;-0.17;81.36;92174.88;5041210;28;20064;-88
2022/04/05 02:29:00;;;;;;;17.77;9.63;;;;;;;0.05;81.07;92205.16;5055804;28;20032;-88
2022/04/05 02:31:57;;;;;;;;;;;;;;;;;;;;;
2022/04/05 02:34:32;;;;;;;19.70;9.63;;;;;;;0.04;81.24;92208.72;5041434;28;20083;-88
2022/04/05 02:37:06;;;;;;;17.15;9.98;;;;;;;-0.19;81.22;92163.25;5039482;28;20052;-88
2022/04/05 02:39:53;;;;;;;20.67;8.52;;;;;;;-0.29;81.33;92148.41;5057979;28;20063;-87
2022/04/05 02:42:48;;;;;;;15.02;8.48;;;;;;;0.16;81.49;92215.41;5029523;28;20127;-87
2022/04/05 02:45:22;;;;;;;17.35;9.27;;;;;;;-0.10;81.02;92183.25;5019797;28;20065;-88
2022/04/05 02:48:07;;;;;;;17.38;8.23;;;;;;;-0.30;80.64;92133.97;5037358;28;20051;-88
2022/04/05 02:51:07;;;;;;;16.77;8.52;;;;;;;-0.28;80.59;92135.28;5021507;28;20067;-88
2022/04/05 02:53:59;;;;;;;;;;;;;;;;;;;;;
2022/04/05 02:56:32;;;;;;;16.17;8.48;;;;;;;-0.03;80.05;92167.66;5021665;28;20053;-88
2022/04/05 02:59:09;;;;;;;18.55;8.75;;;;;;;0.04;79.67;92181.19;5036955;28;20044;-87
2022/04/05 03:01:45;;;;;;;;;;;;;;;;;;;;;
2022/04/05 03:04:21;;;;;;;16.80;8.50;;;;;;;-0.23;79.78;92127.66;5032026;28;20051;-88
2022/04/05 03:07:35;;;;;;;13.98;7.95;;;;;;;-0.29;79.53;92118.31;5000771;28;20088;-91
2022/04/05 03:10:25;;;;;;;16.75;7.47;;;;;;;-0.16;79.32;92147.34;5025562;28;20524;-87
2022/04/05 03:13:13;;;;;;;14.52;7.70;;;;;;;-0.22;79.01;92131.03;5011110;28;20040;-87
2022/04/05 03:16:12;;;;;;;12.82;7.30;;;;;;;0.00;79.69;92164.66;5009310;28;20075;-88
2022/04/05 03:18:53;;;;;;;15.82;8.07;;;;;;;-0.25;79.62;92129.72;5019811;28;20071;-87
2022/04/05 03:21:59;;;;;;;15.80;8.30;;;;;;;-0.33;79.42;92106.91;5005809;28;20087;-88
2022/04/05 03:24:58;;;;;;;14.68;7.70;;;;;;;-0.32;79.43;92113.59;5053275;28;20092;-88
2022/04/05 03:27:43;;;;;;;14.75;7.65;;;;;;;-0.37;79.58;92105.03;5035451;28;20139;-88
2022/04/05 03:30:23;;;;;;;14.15;7.95;;;;;;;-0.38;79.36;92091.41;5035115;28;20037;-87
2022/04/05 03:33:14;;;;;;;20.70;7.75;;;;;;;-0.38;79.38;92090.59;5035390;28;20053;-87
2022/04/05 03:36:18;;;;;;;;;;;;;;;;;;;;;
2022/04/05 03:39:18;;;;;;;;;;;;;;;;;;;;;
2022/04/05 03:42:03;;;;;;;;;;;;;;;;;;;;;
2022/04/05 03:45:27;;;;;;;16.85;8.20;;;;;;;-0.47;79.38;92085.06;5038131;28;20486;-88
2022/04/05 03:48:09;;;;;;;13.40;7.88;;;;;;;-0.21;80.07;92130.03;5019978;28;20040;-88
2022/04/05 03:51:08;;;;;;;14.07;7.07;;;;;;;0.04;79.37;92163.16;5022988;28;20508;-89
2022/04/05 03:53:44;;;;;;;13.02;7.43;;;;;;;-0.07;79.26;92146.78;5022963;28;20051;-87
2022/04/05 03:56:19;;;;;;;13.95;7.38;;;;;;;-0.34;79.23;92095.03;5019813;28;20033;-88
2022/04/05 03:59:25;;;;;;;;;;;;;;;;;;;;;
2022/04/05 04:05:30;;;;;;;14.70;7.32;;;;;;;-0.08;80.00;92149.56;5035122;28;20057;-88
2022/04/05 04:08:23;;;;;;;11.52;6.97;;;;;;;-0.23;80.22;92117.38;5018664;28;20128;-88
2022/04/05 04:11:06;;;;;;;11.95;6.60;;;;;;;-0.13;80.47;92131.47;5036969;28;20033;-87
2022/04/05 04:13:41;;;;;;;13.48;7.30;;;;;;;-0.42;80.28;92088.47;5035034;28;20052;-87
2022/04/05 04:16:33;;;;;;;10.93;6.63;;;;;;;-0.36;80.29;92086.81;5012963;28;20045;-88
2022/04/05 04:19:20;;;;;;;13.52;6.93;;;;;;;-0.45;80.36;92090.72;5031829;28;20049;-88
2022/04/05 04:22:34;;;;;;;13.48;7.03;;;;;;;-0.47;80.73;92074.75;5028522;28;20049;-90
2022/04/05 04:25:03;;;;;;;20.65;8.32;;;;;;;-0.51;81.26;92065.94;5004439;28;20103;-89
2022/04/05 04:27:54;;;;;;;;;;;;;;;;;;;;;
2022/04/05 04:30:43;;;;;;;;;;;;;;;;;;;;;
2022/04/05 04:33:14;;;;;;;20.58;9.10;;;;;;;-0.35;82.43;92082.44;5036005;28;20067;-86
2022/04/05 04:35:52;;;;;;;17.80;8.75;;;;;;;-0.44;82.52;92079.44;5050560;28;20033;-86
2022/04/05 04:38:42;;;;;;;19.33;9.43;;;;;;;-0.49;82.13;92067.28;5002781;28;20140;-86
2022/04/05 04:41:10;;;;;;;17.73;9.30;;;;;;;-0.45;81.81;92077.88;5032866;28;20060;-85
2022/04/05 04:43:38;;;;;;;20.45;9.55;;;;;;;0.03;81.92;92129.94;5020531;28;20522;-85
2022/04/05 04:46:16;;;;;;;16.85;9.00;;;;;;;0.05;81.82;92131.28;5036853;28;20124;-88
2022/04/05 04:48:53;;;;;;;18.08;9.68;;;;;;;-0.33;82.55;92062.41;5036952;28;20044;-86
2022/04/05 04:51:26;;;;;;;17.58;9.82;;;;;;;-0.25;82.20;92062.03;5041741;28;20061;-87
2022/04/05 04:53:54;;;;;;;20.63;9.70;;;;;;;-0.07;81.74;92086.78;5043618;28;20482;-86
2022/04/05 04:56:33;;;;;;;;;;;;;;;;;;;;;
2022/04/05 04:59:13;;;;;;;16.98;9.27;;;;;;;-0.24;81.37;92054.09;5036927;28;20103;-86
2022/04/05 05:01:44;;;;;;;18.63;9.10;;;;;;;-0.18;81.24;92072.19;5039160;28;20044;-86
2022/04/05 05:04:27;;;;;;;15.75;8.82;;;;;;;0.24;81.04;92137.00;5058635;28;20052;-85
2022/04/05 05:06:58;;;;;;;16.58;9.30;;;;;;;0.22;80.95;92133.88;5048786;28;20025;-86
2022/04/05 05:09:49;;;;;;;;;;;;;;;;;;;;;
2022/04/05 05:12:23;;;;;;;17.70;10.18;;;;;;;0.14;80.17;92111.88;5034422;28;20045;-85
2022/04/05 05:14:48;;;;;;;19.90;11.93;;;;;;;0.18;80.00;92118.13;5020254;28;20045;-85
2022/04/05 05:17:14;;;;;;;18.08;9.93;;;;;;;0.25;79.88;92112.03;5032182;28;20378;-85
2022/04/05 05:19:40;;;;;;;18.42;9.77;;;;;;;0.21;79.99;92101.44;5031247;28;20479;-85
2022/04/05 05:22:05;;;;;;;21.23;10.68;;;;;;;0.38;80.16;92114.31;5030218;28;20045;-86
2022/04/05 05:24:31;;;;;;;23.70;11.48;;;;;;;0.30;80.27;92094.13;5017969;28;20041;-85
2022/04/05 05:26:56;;;;;;;22.33;12.07;;;;;;;0.60;79.69;92140.19;5034701;28;20029;-84
2022/04/05 05:29:22;;;;;;;20.80;11.90;;;;;;;0.67;79.53;92134.88;4993266;28;20049;-86
2022/04/05 05:31:48;;;;;;;23.60;12.10;;;;;;;0.69;79.86;92127.69;5023604;28;20246;-84
2022/04/05 05:34:20;;;;;;;21.90;11.27;;;;;;;0.75;80.08;92132.69;5028075;28;20091;-85
2022/04/05 05:36:45;;;;;;;19.70;10.15;;;;;;;0.85;79.72;92128.72;5050325;28;20043;-83
2022/04/05 05:39:11;;;;;;;19.55;10.10;;;;;;;0.89;79.15;92122.84;5034873;28;20033;-84
2022/04/05 05:41:36;;;;;;;17.83;10.38;;;;;;;1.10;78.82;92138.59;5035942;28;20155;-88
2022/04/05 05:44:02;;;;;;;23.40;10.90;;;;;;;1.07;78.32;92118.47;5019701;28;20048;-83
2022/04/05 05:46:28;;;;;;;25.20;11.98;;;;;;;1.30;78.35;92133.72;5035824;28;20033;-85
2022/04/05 05:48:53;;;;;;;22.35;12.13;;;;;;;1.41;78.62;92138.00;5037565;28;20045;-84
2022/04/05 05:51:19;;;;;;;21.65;11.60;;;;;;;1.50;78.16;92132.44;5019665;28;20044;-85
2022/04/05 05:53:45;;;;;;;19.80;11.23;;;;;;;1.63;77.67;92134.66;5019522;28;20116;-84
2022/04/05 05:56:10;;;;;;;18.90;10.80;;;;;;;1.79;77.40;92131.25;5019466;28;20041;-86
2022/04/05 05:58:36;;;;;;;22.17;11.23;;;;;;;2.04;77.28;92133.31;5020065;28;20059;-84
2022/04/05 06:01:02;;;;;;;13.90;8.55;;;;;;;2.44;74.91;92141.72;5019352;28;20079;-85
2022/04/05 06:03:28;;;;;;;16.13;8.32;;;;;;;2.69;72.38;92123.84;5035997;28;20045;-84
2022/04/05 06:05:54;;;;;;;16.23;8.82;;;;;;;3.13;70.12;92133.25;5019446;28;20116;-85
2022/04/05 06:08:19;;;;;;;17.92;8.68;;;;;;;3.66;69.05;92139.22;5035197;28;20178;-85
2022/04/05 06:10:45;;;;;;;18.40;9.88;;;;;;;6.31;62.29;92134.31;5035831;28;20045;-84
2022/04/05 06:13:11;;;;;;;20.55;8.93;;;;;;;9.49;52.99;92117.78;5018918;28;20045;-86
2022/04/05 06:15:37;;;;;;;25.27;9.65;;;;;;;12.04;46.66;92116.72;5019597;28;20490;-85
2022/04/05 06:18:03;;;;;;;16.05;8.63;;;;;;;13.69;42.58;92131.03;5035381;28;20060;-85
2022/04/05 06:20:29;;;;;;;15.95;9.35;;;;;;;15.02;38.58;92141.44;5034954;28;20047;-87
2022/04/05 06:22:58;;;;;;;13.55;8.48;;;;;;;15.72;35.98;92146.94;5035820;28;20127;-85
2022/04/05 06:25:32;;;;;;;18.58;9.77;;;;;;;16.26;34.57;92140.75;5052660;28;20087;-86
2022/04/05 06:28:03;;;;;;;34.03;8.93;;;;;;;16.98;34.14;92141.09;5018739;28;20482;-87
2022/04/05 06:30:30;;;;;;;15.18;9.00;;;;;;;17.18;33.04;92129.59;5052806;28;20510;-85
2022/04/05 06:33:14;;;;;;;15.25;8.70;;;;;;;17.17;33.80;92133.31;5035003;28;20116;-86
2022/04/05 06:35:45;;;;;;;14.77;9.18;;;;;;;17.47;32.35;92136.44;5035041;28;20036;-85
2022/04/05 06:38:11;;;;;;;13.40;8.50;;;;;;;17.45;31.73;92133.34;5035340;28;20067;-86
2022/04/05 06:40:38;;;;;;;14.27;9.02;;;;;;;17.48;31.11;92121.31;5052528;28;20025;-87
2022/04/05 06:43:04;;;;;;;13.38;8.70;;;;;;;18.55;30.17;92127.75;5034529;28;20041;-86
2022/04/05 06:45:30;;;;;;;12.38;7.75;;;;;;;19.78;28.38;92137.19;5052839;28;20029;-86
2022/04/05 06:47:55;;;;;;;12.45;7.80;;;;;;;20.37;26.62;92117.31;5035231;28;20095;-86
2022/04/05 06:50:24;;;;;;;12.50;7.78;;;;;;;21.56;25.87;92127.75;5035328;28;20037;-86
2022/04/05 06:52:56;;;;;;;10.40;6.95;;;;;;;22.06;25.20;92122.19;5035124;28;20041;-86
2022/04/05 06:55:21;;;;;;;8.32;5.88;;;;;;;21.28;25.18;92120.94;5018385;28;20456;-86
2022/04/05 06:57:47;;;;;;;8.18;5.82;;;;;;;19.76;27.04;92118.94;5002738;28;20067;-86
2022/04/05 07:00:17;;;;;;;7.85;5.97;;;;;;;16.79;31.02;92126.56;5053111;28;20121;-86
2022/04/05 07:02:43;;;;;;;9.30;6.20;;;;;;;17.04;31.51;92129.16;5035013;28;20406;-85
2022/04/05 07:05:09;;;;;;;8.75;5.97;;;;;;;15.67;32.53;92133.91;5035014;28;20060;-85
2022/04/05 07:07:38;;;;;;;11.65;5.85;;;;;;;16.91;31.92;92136.38;5052558;28;20040;-85
2022/04/05 07:10:05;;;;;;;10.63;6.80;;;;;;;17.28;31.32;92134.38;5034775;28;20041;-85
2022/04/05 07:12:31;;;;;;;8.90;6.22;;;;;;;16.45;32.44;92139.13;5002340;28;20033;-86
2022/04/05 07:14:57;;;;;;;11.23;6.57;;;;;;;14.47;34.87;92143.16;5052655;28;20041;-85
2022/04/05 07:17:22;;;;;;;10.30;6.32;;;;;;;14.30;37.08;92131.63;5052263;28;20025;-85
2022/04/05 07:19:48;;;;;;;11.32;6.25;;;;;;;13.53;38.38;92138.66;5035375;28;20502;-86
2022/04/05 07:22:14;;;;;;;11.27;6.80;;;;;;;13.05;39.02;92144.84;5018145;28;20047;-85
2022/04/05 07:24:40;;;;;;;8.18;5.97;;;;;;;12.32;39.87;92136.72;5018415;28;20048;-85
2022/04/05 07:27:05;;;;;;;9.50;6.28;;;;;;;10.10;44.49;92144.66;5040999;28;20116;-85
2022/04/05 07:29:31;;;;;;;9.80;6.18;;;;;;;9.64;47.27;92130.59;5052473;28;20481;-85
2022/04/05 07:31:57;;;;;;;10.20;6.68;;;;;;;9.41;49.74;92145.34;5052528;28;20033;-85
2022/04/05 07:34:22;;;;;;;13.85;7.18;;;;;;;9.03;51.49;92155.06;5017961;28;20029;-85
2022/04/05 07:36:48;;;;;;;10.00;6.65;;;;;;;8.29;50.86;92152.94;5034727;28;20037;-86
2022/04/05 07:39:13;;;;;;;9.50;6.30;;;;;;;8.44;50.87;92133.72;5018346;28;20033;-85
2022/04/05 07:41:39;;;;;;;12.43;6.50;;;;;;;7.90;53.58;92125.19;5018226;28;20526;-85
2022/04/05 07:44:05;;;;;;;11.48;6.63;;;;;;;8.07;52.35;92145.63;5018009;28;20452;-85
2022/04/05 07:46:30;;;;;;;10.70;6.20;;;;;;;7.56;53.14;92138.31;5034663;28;20041;-84
2022/04/05 07:48:56;;;;;;;9.60;5.85;;;;;;;6.95;54.57;92145.59;5052429;28;20029;-85
2022/04/05 07:51:22;;;;;;;16.02;7.25;;;;;;;7.34;55.48;92159.63;5001536;28;20717;-85
2022/04/05 07:53:47;;;;;;;10.55;6.00;;;;;;;6.87;55.01;92146.19;5034367;28;20044;-85
2022/04/05 07:56:13;;;;;;;9.85;6.20;;;;;;;6.86;55.50;92149.81;5021709;28;20475;-85
2022/04/05 07:58:43;;;;;;;9.70;6.15;;;;;;;7.40;53.55;92138.47;5038173;28;20041;-87
2022/04/05 08:01:10;;;;;;;10.18;5.90;;;;;;;7.13;53.63;92131.16;5038409;28;20222;-85
2022/04/05 08:03:36;;;;;;;10.05;6.40;;;;;;;7.22;55.08;92154.78;5035808;28;20052;-85
2022/04/05 08:06:03;;;;;;;11.10;6.68;;;;;;;7.48;54.22;92153.50;5057787;28;20413;-85
2022/04/05 08:08:29;;;;;;;11.95;6.57;;;;;;;7.62;52.81;92161.44;5041626;28;20066;-85
2022/04/05 08:10:55;;;;;;;10.60;5.97;;;;;;;7.13;53.69;92144.16;5059063;28;20040;-86
2022/04/05 08:13:21;;;;;;;10.23;6.32;;;;;;;7.57;53.01;92152.91;5041404;28;20500;-88
2022/04/05 08:15:46;;;;;;;12.20;6.80;;;;;;;7.44;52.73;92156.94;5041439;28;20043;-84
2022/04/05 08:18:12;;;;;;;10.75;7.00;;;;;;;7.44;52.94;92154.31;5041137;28;20040;-86
2022/04/05 08:20:41;;;;;;;12.70;6.05;;;;;;;7.18;54.82;92162.38;5074193;28;20032;-85
2022/04/05 08:23:10;;;;;;;12.73;6.30;;;;;;;7.32;53.42;92152.09;5056306;28;20032;-86
2022/04/05 08:25:37;;;;;;;11.18;6.35;;;;;;;7.52;54.40;92158.94;5039514;28;20045;-85
2022/04/05 08:28:03;;;;;;;10.10;6.82;;;;;;;7.75;53.54;92164.47;5057700;28;20040;-84
2022/04/05 08:30:29;;;;;;;11.32;6.55;;;;;;;7.64;54.76;92148.94;5057340;28;20041;-85
2022/04/05 08:32:54;;;;;;;11.23;6.95;;;;;;;8.24;52.94;92160.78;5041202;28;20478;-86
2022/04/05 08:35:21;;;;;;;12.02;6.45;;;;;;;8.81;51.90;92153.84;5058230;28;20539;-86
2022/04/05 08:37:49;;;;;;;9.98;6.30;;;;;;;8.93;52.52;92162.00;5057649;28;20037;-86
2022/04/05 08:40:17;;;;;;;9.38;6.50;;;;;;;8.49;51.12;92155.31;5041051;28;20036;-86
2022/04/05 08:42:46;;;;;;;9.35;5.90;;;;;;;7.78;52.84;92167.28;5075416;28;20037;-86
2022/04/05 08:45:13;;;;;;;10.13;6.63;;;;;;;7.71;54.26;92175.44;5057427;28;20520;-85
2022/04/05 08:47:54;;;;;;;10.98;6.18;;;;;;;7.60;53.83;92168.75;5040762;28;20032;-85
2022/04/05 08:50:33;;;;;;;11.70;7.43;;;;;;;8.14;55.13;92162.47;5041452;28;20127;-84
2022/04/05 08:53:00;;;;;;;11.48;6.30;;;;;;;8.31;52.13;92156.03;5057104;28;20040;-84
2022/04/05 08:55:28;;;;;;;10.20;6.15;;;;;;;8.28;51.88;92140.94;5057371;28;20036;-88
2022/04/05 08:57:55;;;;;;;12.00;6.70;;;;;;;8.80;52.65;92173.16;5041039;28;20067;-86
2022/04/05 09:00:22;;;;;;;8.65;5.55;;;;;;;8.74;51.12;92163.84;5074880;28;20060;-85
2022/04/05 09:02:52;;;;;;;15.13;7.00;;;;;;;8.66;52.90;92161.88;5057126;28;20068;-87
2022/04/05 09:05:37;;;;;;;12.23;6.90;;;;;;;8.84;51.29;92161.09;5075354;28;20056;-84
2022/04/05 09:08:22;;;;;;;14.52;7.05;;;;;;;9.19;50.83;92153.81;5056977;28;20036;-84
2022/04/05 09:11:20;;;;;;;10.10;6.25;;;;;;;9.16;50.16;92138.69;5056926;28;20036;-84
2022/04/05 09:14:00;;;;;;;9.88;6.28;;;;;;;9.21;49.80;92141.25;5057229;28;20036;-85
2022/04/05 09:16:30;;;;;;;9.98;6.35;;;;;;;8.94;50.69;92137.47;5056966;28;20032;-84
2022/04/05 09:18:56;;;;;;;10.43;7.07;;;;;;;8.69;50.55;92141.22;5024690;28;20051;-84
2022/04/05 09:21:21;;;;;;;9.90;6.45;;;;;;;9.24;50.76;92148.50;5040205;28;20028;-86
2022/04/05 09:23:52;;;;;;;9.98;6.38;;;;;;;9.15;49.34;92147.59;5056509;28;20079;-85
2022/04/05 09:26:19;;;;;;;9.90;6.05;;;;;;;9.45;48.82;92148.16;5056549;28;20059;-85
2022/04/05 09:28:47;;;;;;;9.25;6.30;;;;;;;9.52;48.95;92146.72;5019514;28;20036;-86
2022/04/05 09:31:18;;;;;;;9.63;6.53;;;;;;;9.66;49.17;92138.13;5036948;28;20041;-85
2022/04/05 09:34:05;;;;;;;10.48;5.97;;;;;;;8.70;49.67;92124.50;5037071;28;20041;-85
2022/04/05 09:36:33;;;;;;;10.07;6.45;;;;;;;9.13;50.34;92129.59;5054848;28;20075;-85
2022/04/05 09:39:15;;;;;;;9.43;6.22;;;;;;;8.99;51.32;92148.91;5048233;28;20071;-85
2022/04/05 09:41:40;;;;;;;11.25;6.05;;;;;;;9.06;49.04;92136.25;5036562;28;20044;-85
2022/04/05 09:44:06;;;;;;;11.55;7.15;;;;;;;9.31;50.63;92140.28;5019975;28;20045;-85
2022/04/05 09:46:33;;;;;;;11.38;6.97;;;;;;;9.47;51.07;92138.22;5036124;28;20033;-86
2022/04/05 09:49:11;;;;;;;10.43;6.18;;;;;;;9.50;48.28;92133.19;5035889;28;20429;-85
2022/04/05 09:51:45;;;;;;;11.43;6.45;;;;;;;9.40;50.25;92129.97;5036413;28;20060;-85
2022/04/05 09:54:22;;;;;;;11.95;7.18;;;;;;;10.19;47.38;92129.84;5035530;28;20041;-86
2022/04/05 09:56:48;;;;;;;9.95;6.55;;;;;;;9.72;48.90;92129.91;5053217;28;20040;-85
2022/04/05 09:59:18;;;;;;;9.93;5.47;;;;;;;9.32;50.63;92137.41;5036066;28;20466;-86
2022/04/05 10:01:49;;;;;;;12.32;6.57;;;;;;;9.58;48.95;92118.69;5019023;28;20068;-86
2022/04/05 10:04:17;;;;;;;11.07;7.10;;;;;;;8.99;49.68;92122.78;5035543;28;20049;-86
2022/04/05 10:06:46;;;;;;;10.57;6.38;;;;;;;9.47;49.60;92114.69;5053558;28;20048;-85
2022/04/05 10:09:14;;;;;;;11.98;6.68;;;;;;;9.48;50.74;92118.84;5019236;28;20127;-85
2022/04/05 10:11:41;;;;;;;12.40;6.93;;;;;;;9.23;49.97;92139.13;5014404;28;20037;-85
2022/04/05 10:14:10;;;;;;;11.23;6.40;;;;;;;9.26;50.03;92132.56;5032347;28;20037;-85
2022/04/05 10:16:37;;;;;;;10.75;6.95;;;;;;;9.63;49.74;92133.50;5033505;28;20033;-85
2022/04/05 10:19:12;;;;;;;12.25;7.22;;;;;;;10.34;47.72;92128.81;5031523;28;20172;-85
2022/04/05 10:21:40;;;;;;;7.70;5.28;;;;;;;9.88;47.27;92117.34;5033057;28;20038;-84
2022/04/05 10:24:08;;;;;;;10.32;6.95;;;;;;;9.91;49.64;92100.31;5033205;28;20037;-86
2022/04/05 10:26:39;;;;;;;9.95;6.63;;;;;;;10.36;48.37;92129.28;5015854;28;20033;-86
2022/04/05 10:29:15;;;;;;;11.35;6.93;;;;;;;10.42;46.40;92096.69;5033140;28;20049;-86
2022/04/05 10:32:05;;;;;;;12.18;6.38;;;;;;;11.07;46.60;92120.94;5031565;28;20360;-87
2022/04/05 10:34:44;;;;;;;11.05;6.70;;;;;;;10.26;46.13;92124.22;5031936;28;20057;-86
2022/04/05 10:37:18;;;;;;;9.35;6.15;;;;;;;10.58;46.28;92123.31;5032394;28;20167;-86
2022/04/05 10:40:05;;;;;;;11.07;6.80;;;;;;;10.51;46.75;92115.09;5031950;28;20422;-86
2022/04/05 10:42:39;;;;;;;8.88;5.85;;;;;;;10.00;47.42;92122.09;5015325;28;20171;-85
2022/04/05 10:45:18;;;;;;;9.23;4.57;;;;;;;10.62;44.92;92098.88;5015599;28;20168;-85
2022/04/05 10:48:18;;;;;;;9.35;5.15;;;;;;;11.10;45.66;92123.75;5015194;28;20057;-85
2022/04/05 10:51:05;;;;;;;8.73;5.68;;;;;;;11.35;44.99;92111.09;5032420;28;20506;-85
2022/04/05 10:53:32;;;;;;;11.15;5.68;;;;;;;11.41;44.80;92113.31;5014557;28;20060;-86
2022/04/05 10:56:04;;;;;;;11.40;6.03;;;;;;;11.91;42.71;92114.19;5031066;28;20113;-86
2022/04/05 10:58:31;;;;;;;10.55;5.88;;;;;;;10.69;43.85;92095.09;5031425;28;20098;-85
2022/04/05 11:01:12;;;;;;;11.30;6.75;;;;;;;10.92;45.39;92107.16;5031454;28;20053;-87
2022/04/05 11:03:38;;;;;;;13.98;5.90;;;;;;;11.05;44.79;92105.53;5030978;28;20053;-86
2022/04/05 11:06:04;;;;;;;8.40;4.72;;;;;;;10.91;42.39;92096.97;5030843;28;20037;-87
2022/04/05 11:08:31;;;;;;;11.68;6.40;;;;;;;11.56;43.93;92106.16;5031113;28;20466;-85
2022/04/05 11:11:02;;;;;;;8.90;6.20;;;;;;;11.20;43.95;92096.53;5032480;28;20087;-87
2022/04/05 11:13:42;;;;;;;10.70;6.22;;;;;;;10.88;42.98;92090.47;5031273;28;20467;-87
2022/04/05 11:16:11;;;;;;;10.73;5.70;;;;;;;11.11;43.50;92093.09;5014872;28;20410;-85
2022/04/05 11:18:38;;;;;;;11.60;6.47;;;;;;;11.69;43.50;92100.06;5031494;28;20030;-86
2022/04/05 11:21:09;;;;;;;10.77;5.78;;;;;;;11.73;41.33;92098.38;5032784;28;20128;-86
2022/04/05 11:23:47;;;;;;;14.48;7.13;;;;;;;11.61;42.24;92100.78;5031376;28;20099;-87
2022/04/05 11:26:26;;;;;;;14.27;6.40;;;;;;;11.51;43.59;92086.09;5032927;28;20425;-85
2022/04/05 11:28:53;;;;;;;9.95;6.00;;;;;;;11.27;43.03;92075.16;5032498;28;20113;-85
2022/04/05 11:31:40;;;;;;;9.25;4.95;;;;;;;11.58;42.08;92096.13;5036271;28;20045;-86
2022/04/05 11:34:35;;;;;;;12.10;6.80;;;;;;;12.06;43.34;92098.06;5018976;28;20041;-85
2022/04/05 11:37:00;;;;;;;15.05;6.85;;;;;;;11.92;42.96;92086.91;5035283;28;20490;-85
2022/04/05 11:39:26;;;;;;;12.43;7.45;;;;;;;11.85;42.23;92093.31;5035414;28;20071;-85
2022/04/05 11:42:00;;;;;;;14.20;7.07;;;;;;;11.90;42.54;92092.44;5035385;28;20029;-85
2022/04/05 11:44:25;;;;;;;12.68;6.72;;;;;;;12.33;42.82;92073.41;5035211;28;20043;-85
2022/04/05 11:46:52;;;;;;;10.88;6.70;;;;;;;12.46;41.88;92077.00;5016075;28;20037;-85
2022/04/05 11:49:18;;;;;;;15.00;7.22;;;;;;;12.27;42.80;92079.88;5002991;28;20041;-85
2022/04/05 11:51:51;;;;;;;12.82;7.07;;;;;;;12.52;41.30;92088.09;5018535;28;20036;-86
2022/04/05 11:54:27;;;;;;;12.82;7.55;;;;;;;12.74;41.27;92090.59;5035572;28;20041;-85
2022/04/05 11:56:54;;;;;;;11.30;7.70;;;;;;;12.89;41.31;92095.41;5034971;28;20064;-86
2022/04/05 11:59:27;;;;;;;11.55;6.82;;;;;;;12.17;40.86;92085.44;5035318;28;20045;-85
2022/04/05 12:01:52;;;;;;;;;;;;;;;12.57;40.57;92088.75;5036680;28;20036;-87
2022/04/05 12:04:22;;;;;;;10.52;6.80;;;;;;;12.40;40.25;92083.47;5034390;28;19921;-87
2022/04/05 12:06:59;;;;;;;10.85;6.90;;;;;;;12.79;42.10;92079.16;5034272;28;20510;-87
2022/04/05 12:09:26;;;;;;;12.65;7.68;;;;;;;13.03;40.88;92087.34;5035252;28;20491;-86
2022/04/05 12:11:52;;;;;;;11.23;6.72;;;;;;;13.25;39.91;92085.66;5035298;28;20029;-85
2022/04/05 12:14:21;;;;;;;12.27;7.55;;;;;;;13.20;39.15;92076.06;5018606;28;20041;-86
2022/04/05 12:16:54;;;;;;;10.77;6.78;;;;;;;13.33;40.11;92071.75;5035122;28;20040;-85
2022/04/05 12:19:33;;;;;;;13.35;7.28;;;;;;;13.06;39.91;92055.22;5015146;28;20041;-85
2022/04/05 12:22:02;;;;;;;13.90;7.50;;;;;;;13.11;39.79;92067.41;4997994;28;20042;-87
2022/04/05 12:24:29;;;;;;;10.95;6.63;;;;;;;13.38;39.58;92063.69;5001823;28;20040;-86
2022/04/05 12:26:56;;;;;;;10.45;6.47;;;;;;;13.08;40.75;92057.50;5035741;28;20038;-86
2022/04/05 12:29:23;;;;;;;14.05;8.13;;;;;;;13.44;38.62;92051.94;5036003;28;20116;-86
2022/04/05 12:31:49;;;;;;;13.07;7.78;;;;;;;13.52;38.93;92043.22;5034853;28;20410;-85
2022/04/05 12:34:15;;;;;;;16.15;7.15;;;;;;;13.25;39.34;92059.34;5018199;28;20044;-85
2022/04/05 12:36:44;;;;;;;15.27;7.55;;;;;;;13.59;39.15;92052.50;5034656;28;20033;-86
2022/04/05 12:39:24;;;;;;;14.30;7.82;;;;;;;13.69;38.93;92052.94;5017828;28;20106;-85
2022/04/05 12:41:57;;;;;;;13.48;7.32;;;;;;;13.45;38.66;92037.69;5013741;28;20518;-87
2022/04/05 12:44:28;;;;;;;13.30;7.22;;;;;;;13.57;39.36;92049.41;5026989;28;20049;-88
2022/04/05 12:46:59;;;;;;;13.57;8.07;;;;;;;13.48;40.81;92052.06;5018016;28;20394;-86
2022/04/05 12:49:34;;;;;;;14.57;7.57;;;;;;;13.55;39.89;92033.94;5017400;28;20048;-86